Search for airport 
image banner adimage banner adimage banner ad
image banner ad

KRBL - Red Bluff Muni

Located in Red Bluff, United States

ICAO - RBL, IATA -

Data provided by Airmate  

General information

Coordinates: N40°9'1" W122°15'8"
Elevation is 352 feet MSL.
Magnetic variation is 17° East
View others Airports in California

Operational data

Special qualification required
Current time UTC:
Current local time:
Weather
METAR: KRBL 141254Z AUTO 19007KT 10SM SCT100 19/14 A2995 RMK AO2 SLP138 T01890139
TAF: KRBL 141120Z 1412/1512 16011KT P6SM FEW120 FM142000 16017G25KT P6SM SCT250 FM150300 19008KT P6SM FEW250 FM150600 32006KT P6SM SKC
View NOTAMs / SUP AIP / TFR affecting this airport [VIEW]
Communications frequencies: [VIEW]

Runways:

RWY identifierQFULength (ft)Width (ft)SurfaceLDA (ft)
15168°5431100ASPH
33348°5431100ASPH

Airport contact information

Address: Red Bluff United States

Satellite view of KRBL